Starford, Pennsylvania
Current Conditions -  °F | °C
As of 5:55 AM on Friday 24 Oct 2014 (Local Time) from KIDI Reporting Station
Overcast Overcast  
Wind Chill: 44°   Ceiling: 900
Heat Index: 46°   Visibility: 10mi
Dew Point: 43°   Wind: 5mph
Humidity: 87%   Direction: NA
Pressure: 30.11"   Gusts: NA
Location:  40.7°N, 78.96°W
Report Text: KIDI 240955Z AUTO VRB04KT 10SM OVC009 08/06 A3011 RMK A01
Loading
Personal Weather Stations






























Interactive Weather Map
Tropical Storm Tracking
New forecast layout! Learn more

10-Day Weather Forecast

Advertisements
Track Severe Weather on mobile